Wetterdaten: aktuell Mittwoch, 18.05.2022 20:30
Datum Zeit Temp. A. BodenT.+5cm Feuchte A. Luftdruck Regen Wind Richtung Richtung Sonnenschein T Regen ET UV Solar Taupunkt chill Windben Empfang
18.05.2022 20:30 19,6 C 17,2 C 54 % 1022,9 hPa 0,0 l/m 3,8 km/h (1 Bft) O 88 0 min 0 min 0,127 mm 0,0 UV-I 16 W/m 10,0 C 19,6 C 6,8 km/h (2 Bft) 100,00 %
18.05.2022 19:30 21,9 C 21,1 C 47 % 1022,8 hPa 0,0 l/m 7,1 km/h (2 Bft) O-NO 69 60 min 0 min 0,254 mm 0,0 UV-I 120 W/m 10,1 C 21,7 C 15,4 km/h (3 Bft) 97,44 %
18.05.2022 18:30 23,7 C 23,3 C 42 % 1022,9 hPa 0,0 l/m 8,9 km/h (2 Bft) O-SO 113 60 min 0 min 0,356 mm 0,0 UV-I 288 W/m 10,0 C 23,0 C 15,4 km/h (3 Bft) 97,44 %
18.05.2022 17:30 24,3 C 25,0 C 42 % 1022,7 hPa 0,0 l/m 8,1 km/h (2 Bft) O 85 55 min 0 min 0,381 mm 0,0 UV-I 411 W/m 10,6 C 23,8 C 17,1 km/h (3 Bft) 99,15 %
18.05.2022 16:30 24,3 C 25,6 C 47 % 1022,8 hPa 0,0 l/m 6,1 km/h (2 Bft) S-SO 149 35 min 0 min 0,381 mm 0,0 UV-I 591 W/m 12,3 C 24,3 C 10,2 km/h (2 Bft) 99,15 %
18.05.2022 15:30 23,3 C 25,6 C 50 % 1023,2 hPa 0,0 l/m 4,4 km/h (1 Bft) O-NO 60 35 min 0 min 0,457 mm 0,0 UV-I 796 W/m 12,3 C 23,3 C 11,9 km/h (2 Bft) 96,58 %
18.05.2022 14:30 23,7 C 26,7 C 50 % 1023,4 hPa 0,0 l/m 9,9 km/h (2 Bft) O-SO 115 50 min 0 min 0,508 mm 0,8 UV-I 877 W/m 12,6 C 22,8 C 18,8 km/h (3 Bft) 94,87 %
18.05.2022 13:30 23,9 C 28,9 C 52 % 1023,6 hPa 0,0 l/m 6,4 km/h (2 Bft) O-NO 78 60 min 0 min 0,559 mm 1,2 UV-I 867 W/m 13,4 C 23,9 C 17,1 km/h (3 Bft) 96,58 %
18.05.2022 12:30 23,3 C 27,8 C 54 % 1024,0 hPa 0,0 l/m 6,4 km/h (2 Bft) O 97 60 min 0 min 0,533 mm 1,2 UV-I 842 W/m 13,5 C 23,3 C 15,4 km/h (3 Bft) 98,29 %
18.05.2022 11:30 22,4 C 26,1 C 56 % 1024,1 hPa 0,0 l/m 4,4 km/h (1 Bft) O 92 60 min 0 min 0,432 mm 0,6 UV-I 795 W/m 13,2 C 22,4 C 15,4 km/h (3 Bft) 100,00 %
18.05.2022 10:30 20,6 C 25,6 C 66 % 1024,2 hPa 0,0 l/m 8,6 km/h (2 Bft) O-SO 109 60 min 0 min 0,001 mm 0,0 UV-I 691 W/m 14,0 C 19,8 C 15,4 km/h (3 Bft) 97,44 %
18.05.2022 09:30 17,7 C 19,4 C 77 % 1024,2 hPa 0,0 l/m 6,3 km/h (2 Bft) O-SO 121 40 min 0 min 0,152 mm 0,0 UV-I 397 W/m 13,6 C 17,7 C 11,9 km/h (2 Bft) 97,44 %
18.05.2022 08:30 15,8 C 16,7 C 84 % 1024,1 hPa 0,0 l/m 9,1 km/h (2 Bft) O 98 15 min 0 min 0,102 mm 0,0 UV-I 251 W/m 13,1 C 14,4 C 18,8 km/h (3 Bft) 98,29 %
18.05.2022 07:30 13,3 C 14,4 C 96 % 1023,9 hPa 0,0 l/m 10,2 km/h (2 Bft) O 82 35 min 0 min 0,025 mm 0,0 UV-I 315 W/m 12,7 C 11,1 C 17,1 km/h (3 Bft) 100,00 %
18.05.2022 06:25 9,9 C 10,0 C 96 % 1023,3 hPa 0,0 l/m 0,0 km/h (0 Bft) N 0 5 min 0 min 0,000 mm 0,0 UV-I 28 W/m 9,3 C 9,9 C 0,0 km/h (0 Bft) 100,00 %
18.05.2022 05:25 10,3 C 9,4 C 95 % 1022,5 hPa 0,0 l/m 0,0 km/h (0 Bft) N 0 0 min 0 min 0,000 mm 0,0 UV-I 5 W/m 9,5 C 10,3 C 0,0 km/h (0 Bft) 100,00 %
18.05.2022 04:25 10,3 C 10,0 C 95 % 1022,0 hPa 0,0 l/m 0,0 km/h (0 Bft) N 0 0 min 0 min 0,000 mm 0,0 UV-I 0 W/m 9,5 C 10,3 C 0,0 km/h (0 Bft) 100,00 %
18.05.2022 03:25 10,7 C 10,0 C 94 % 1022,1 hPa 0,0 l/m 0,0 km/h (0 Bft) N 0 0 min 0 min 0,000 mm 0,0 UV-I 0 W/m 9,8 C 10,7 C 0,0 km/h (0 Bft) 100,00 %
18.05.2022 02:25 11,2 C 10,6 C 93 % 1021,7 hPa 0,0 l/m 0,0 km/h (0 Bft) N 0 0 min 0 min 0,000 mm 0,0 UV-I 0 W/m 10,1 C 11,2 C 0,0 km/h (0 Bft) 100,00 %
18.05.2022 01:25 12,1 C 11,1 C 90 % 1021,6 hPa 0,0 l/m 0,0 km/h (0 Bft) N 0 0 min 0 min 0,000 mm 0,0 UV-I 0 W/m 10,5 C 12,1 C 0,0 km/h (0 Bft) 100,00 %
18.05.2022 00:25 12,8 C 11,7 C 88 % 1021,4 hPa 0,0 l/m 0,0 km/h (0 Bft) N 0 0 min 0 min 0,000 mm 0,0 UV-I 0 W/m 10,9 C 12,8 C 0,0 km/h (0 Bft) 100,00 %
17.05.2022 23:25 13,7 C 12,8 C 84 % 1020,7 hPa 0,0 l/m 0,0 km/h (0 Bft) N 0 0 min 0 min 0,000 mm 0,0 UV-I 0 W/m 11,0 C 13,7 C 0,0 km/h (0 Bft) 100,00 %
17.05.2022 22:25 14,8 C 13,3 C 79 % 1020,5 hPa 0,0 l/m 0,0 km/h (0 Bft) N 0 0 min 0 min 0,000 mm 0,0 UV-I 0 W/m 11,2 C 14,8 C 0,0 km/h (0 Bft) 97,37 %
17.05.2022 21:25 16,3 C 15,0 C 72 % 1020,0 hPa 0,0 l/m 1,7 km/h (1 Bft) O-NO 67 0 min 0 min 0,025 mm 0,0 UV-I 0 W/m 11,2 C 16,3 C 6,8 km/h (2 Bft) 100,00 %
17.05.2022 21:00 17,2 C 15,6 C 68 % 1019,9 hPa 0,0 l/m 0,0 km/h (0 Bft) N 0 0 min 0 min 0,025 mm 0,0 UV-I 0 W/m 11,2 C 17,2 C 0,0 km/h (0 Bft) 100,00 %
_ Min-Zeit 06:20 06:20 18:10 21:05 - 07:00 - - - - - - - 06:15 06:20 07:00 19:45
Minimum _ 9,8 C 9,4 C 40 % 1019,9 hPa - 0,0 km/h (0 Bft) - - - - - - - 9,0 C 9,8 C 0,0 km/h (0 Bft) 94,02 %
_ Max-Zeit 17:00 13:35 07:35 10:00 20:30 09:15 - - 19:30 20:30 13:00 13:25 14:50 11:00 17:05 16:50 20:30
Maximum _ 24,8 C 28,9 C 96 % 1024,4 hPa 0,0 l/m 12,4 km/h
SO (3 Bft)
- - 5 min 0 min 0,559 mm 1,5 UV-I 926 W/m 14,4 C 24,3 C 22,2 km/h
O-NO (4 Bft)
100,00 %
Durchschnitt _ 17,5 C 18,0 C 71 % 1022,5 hPa #0,0 l/m 4,2 km/h (1 Bft) N - #10:30 h #0 min. #4,547 mm 1,1 UV-I 432 W/m 11,4 C 17,2 C 8,5 km/h (2 Bft) 99,00 %